sensor_id;sensor_type;location;lat;lon;timestamp;pressure;altitude;pressure_sealevel;temperature;humidity
50103;BME280;35993;52.604;10.078;2022-09-12T00:00:40;101446.47;;;12.78;100.00
50103;BME280;35993;52.604;10.078;2022-09-12T00:03:05;101441.25;;;12.77;100.00
50103;BME280;35993;52.604;10.078;2022-09-12T00:05:31;101440.41;;;12.70;100.00
50103;BME280;35993;52.604;10.078;2022-09-12T00:07:58;101444.84;;;12.64;100.00
50103;BME280;35993;52.604;10.078;2022-09-12T00:10:23;101438.38;;;12.58;100.00
50103;BME280;35993;52.604;10.078;2022-09-12T00:12:50;101435.44;;;12.53;100.00
50103;BME280;35993;52.604;10.078;2022-09-12T00:15:16;101434.38;;;12.48;100.00
50103;BME280;35993;52.604;10.078;2022-09-12T00:17:42;101428.53;;;12.44;100.00
50103;BME280;35993;52.604;10.078;2022-09-12T00:20:09;101427.06;;;12.41;100.00
50103;BME280;35993;52.604;10.078;2022-09-12T00:22:35;101427.06;;;12.35;100.00
50103;BME280;35993;52.604;10.078;2022-09-12T00:25:01;101419.53;;;12.30;100.00
50103;BME280;35993;52.604;10.078;2022-09-12T00:27:26;101416.41;;;12.26;100.00
50103;BME280;35993;52.604;10.078;2022-09-12T00:29:52;101422.69;;;12.27;100.00
50103;BME280;35993;52.604;10.078;2022-09-12T00:32:19;101415.34;;;12.21;100.00
50103;BME280;35993;52.604;10.078;2022-09-12T00:34:44;101422.47;;;12.22;100.00
50103;BME280;35993;52.604;10.078;2022-09-12T00:37:10;101417.66;;;12.17;100.00
50103;BME280;35993;52.604;10.078;2022-09-12T00:39:35;101416.41;;;12.13;100.00
50103;BME280;35993;52.604;10.078;2022-09-12T00:42:01;101413.91;;;12.18;100.00
50103;BME280;35993;52.604;10.078;2022-09-12T00:46:58;101412.44;;;12.16;100.00
50103;BME280;35993;52.604;10.078;2022-09-12T00:49:28;101409.72;;;12.16;100.00
50103;BME280;35993;52.604;10.078;2022-09-12T00:52:02;101410.56;;;12.16;100.00
50103;BME280;35993;52.604;10.078;2022-09-12T00:54:33;101408.03;;;12.15;100.00
50103;BME280;35993;52.604;10.078;2022-09-12T00:57:03;101406.78;;;12.10;100.00
50103;BME280;35993;52.604;10.078;2022-09-12T00:59:36;101400.50;;;12.10;100.00
50103;BME280;35993;52.604;10.078;2022-09-12T01:02:04;101408.88;;;12.15;100.00
50103;BME280;35993;52.604;10.078;2022-09-12T01:04:31;101404.91;;;12.18;100.00
50103;BME280;35993;52.604;10.078;2022-09-12T01:06:57;101395.91;;;12.10;100.00
50103;BME280;35993;52.604;10.078;2022-09-12T01:09:24;101404.06;;;12.10;100.00
50103;BME280;35993;52.604;10.078;2022-09-12T01:11:51;101398.63;;;12.04;100.00
50103;BME280;35993;52.604;10.078;2022-09-12T01:14:18;101397.16;;;11.94;100.00
50103;BME280;35993;52.604;10.078;2022-09-12T01:16:45;101392.75;;;11.93;100.00
50103;BME280;35993;52.604;10.078;2022-09-12T01:27:54;101383.53;;;11.81;100.00
50103;BME280;35993;52.604;10.078;2022-09-12T01:42:30;101389.56;;;11.76;100.00
50103;BME280;35993;52.604;10.078;2022-09-12T01:44:59;101386.84;;;11.70;100.00
50103;BME280;35993;52.604;10.078;2022-09-12T01:47:39;101381.84;;;11.60;100.00
50103;BME280;35993;52.604;10.078;2022-09-12T01:50:21;101378.91;;;11.55;100.00
50103;BME280;35993;52.604;10.078;2022-09-12T01:52:58;101372.41;;;11.56;100.00
50103;BME280;35993;52.604;10.078;2022-09-12T01:55:31;101373.88;;;11.52;100.00
50103;BME280;35993;52.604;10.078;2022-09-12T02:00:42;101373.44;;;11.41;100.00
50103;BME280;35993;52.604;10.078;2022-09-12T02:03:13;101370.72;;;11.35;100.00
50103;BME280;35993;52.604;10.078;2022-09-12T02:05:50;101364.41;;;11.34;100.00
50103;BME280;35993;52.604;10.078;2022-09-12T02:08:25;101371.31;;;11.30;100.00
50103;BME280;35993;52.604;10.078;2022-09-12T02:10:57;101369.25;;;11.25;100.00
50103;BME280;35993;52.604;10.078;2022-09-12T02:13:31;101365.88;;;11.23;100.00
50103;BME280;35993;52.604;10.078;2022-09-12T02:16:05;101357.09;;;11.21;100.00
50103;BME280;35993;52.604;10.078;2022-09-12T02:18:33;101358.16;;;11.20;100.00
50103;BME280;35993;52.604;10.078;2022-09-12T02:21:04;101359.63;;;11.23;100.00
50103;BME280;35993;52.604;10.078;2022-09-12T02:23:31;101357.31;;;11.26;100.00
50103;BME280;35993;52.604;10.078;2022-09-12T02:26:02;101360.88;;;11.27;100.00
50103;BME280;35993;52.604;10.078;2022-09-12T02:28:33;101349.34;;;11.25;100.00
50103;BME280;35993;52.604;10.078;2022-09-12T02:36:40;101355.63;;;11.19;100.00
50103;BME280;35993;52.604;10.078;2022-09-12T02:39:10;101360.03;;;11.26;100.00
50103;BME280;35993;52.604;10.078;2022-09-12T02:41:36;101364.19;;;11.09;100.00
50103;BME280;35993;52.604;10.078;2022-09-12T02:44:03;101361.38;;;10.82;100.00
50103;BME280;35993;52.604;10.078;2022-09-12T02:46:37;101365.13;;;10.88;100.00
50103;BME280;35993;52.604;10.078;2022-09-12T02:49:04;101358.09;;;11.00;100.00
50103;BME280;35993;52.604;10.078;2022-09-12T02:51:30;101352.44;;;11.02;100.00
50103;BME280;35993;52.604;10.078;2022-09-12T02:53:55;101347.44;;;11.12;100.00
50103;BME280;35993;52.604;10.078;2022-09-12T02:56:26;101340.53;;;11.09;100.00
50103;BME280;35993;52.604;10.078;2022-09-12T02:58:53;101333.88;;;11.12;100.00
50103;BME280;35993;52.604;10.078;2022-09-12T03:01:28;101349.13;;;11.13;100.00
50103;BME280;35993;52.604;10.078;2022-09-12T03:18:11;101344.66;;;10.85;100.00
50103;BME280;35993;52.604;10.078;2022-09-12T03:21:01;101341.94;;;10.92;100.00
50103;BME280;35993;52.604;10.078;2022-09-12T03:23:43;101333.19;;;10.90;100.00
50103;BME280;35993;52.604;10.078;2022-09-12T03:28:47;101328.09;;;10.73;100.00
50103;BME280;35993;52.604;10.078;2022-09-12T03:31:15;101336.03;;;10.68;100.00
50103;BME280;35993;52.604;10.078;2022-09-12T03:33:41;101332.50;;;10.74;100.00
50103;BME280;35993;52.604;10.078;2022-09-12T03:36:21;101338.31;;;10.71;100.00
50103;BME280;35993;52.604;10.078;2022-09-12T03:38:47;101340.44;;;10.69;100.00
50103;BME280;35993;52.604;10.078;2022-09-12T03:41:12;101344.16;;;10.68;100.00
50103;BME280;35993;52.604;10.078;2022-09-12T03:43:38;101343.31;;;10.68;100.00
50103;BME280;35993;52.604;10.078;2022-09-12T03:46:04;101340.78;;;10.59;100.00
50103;BME280;35993;52.604;10.078;2022-09-12T03:48:29;101349.34;;;10.56;100.00
50103;BME280;35993;52.604;10.078;2022-09-12T03:51:04;101341.81;;;10.58;100.00
50103;BME280;35993;52.604;10.078;2022-09-12T03:53:29;101341.81;;;10.58;100.00
50103;BME280;35993;52.604;10.078;2022-09-12T03:55:56;101342.03;;;10.57;100.00
50103;BME280;35993;52.604;10.078;2022-09-12T03:58:22;101341.44;;;10.61;100.00
50103;BME280;35993;52.604;10.078;2022-09-12T04:00:47;101341.25;;;10.70;100.00
50103;BME280;35993;52.604;10.078;2022-09-12T04:03:13;101343.72;;;10.64;100.00
50103;BME280;35993;52.604;10.078;2022-09-12T04:05:39;101350.63;;;10.60;100.00
50103;BME280;35993;52.604;10.078;2022-09-12T04:08:07;101349.09;;;10.51;100.00
50103;BME280;35993;52.604;10.078;2022-09-12T04:10:34;101348.47;;;10.49;100.00
50103;BME280;35993;52.604;10.078;2022-09-12T04:12:59;101350.97;;;10.51;100.00
50103;BME280;35993;52.604;10.078;2022-09-12T04:15:25;101359.91;;;10.44;100.00
50103;BME280;35993;52.604;10.078;2022-09-12T04:17:50;101351.38;;;10.47;100.00
50103;BME280;35993;52.604;10.078;2022-09-12T04:20:16;101352.00;;;10.49;100.00
50103;BME280;35993;52.604;10.078;2022-09-12T04:22:42;101354.28;;;10.46;100.00
50103;BME280;35993;52.604;10.078;2022-09-12T04:25:08;101347.38;;;10.43;100.00
50103;BME280;35993;52.604;10.078;2022-09-12T04:27:34;101346.75;;;10.41;100.00
50103;BME280;35993;52.604;10.078;2022-09-12T04:30:00;101349.06;;;10.44;100.00
50103;BME280;35993;52.604;10.078;2022-09-12T04:32:29;101350.31;;;10.48;100.00
50103;BME280;35993;52.604;10.078;2022-09-12T04:34:56;101359.09;;;10.44;100.00
50103;BME280;35993;52.604;10.078;2022-09-12T04:37:21;101349.25;;;10.43;100.00
50103;BME280;35993;52.604;10.078;2022-09-12T04:39:48;101358.84;;;10.39;100.00
50103;BME280;35993;52.604;10.078;2022-09-12T04:42:14;101363.03;;;10.41;100.00
50103;BME280;35993;52.604;10.078;2022-09-12T04:44:40;101355.75;;;10.48;100.00
50103;BME280;35993;52.604;10.078;2022-09-12T04:47:06;101352.22;;;10.48;100.00
50103;BME280;35993;52.604;10.078;2022-09-12T04:49:32;101350.97;;;10.51;100.00
50103;BME280;35993;52.604;10.078;2022-09-12T04:51:58;101356.63;;;10.56;100.00
50103;BME280;35993;52.604;10.078;2022-09-12T04:54:23;101348.28;;;10.57;100.00
50103;BME280;35993;52.604;10.078;2022-09-12T04:56:50;101359.00;;;10.65;100.00
50103;BME280;35993;52.604;10.078;2022-09-12T04:59:18;101353.34;;;10.60;100.00
50103;BME280;35993;52.604;10.078;2022-09-12T05:01:45;101358.78;;;10.67;100.00
50103;BME280;35993;52.604;10.078;2022-09-12T05:04:11;101351.06;;;10.64;100.00
50103;BME280;35993;52.604;10.078;2022-09-12T05:06:38;101357.28;;;10.58;100.00
50103;BME280;35993;52.604;10.078;2022-09-12T05:09:07;101352.88;;;10.57;100.00
50103;BME280;35993;52.604;10.078;2022-09-12T05:11:35;101354.97;;;10.55;100.00
50103;BME280;35993;52.604;10.078;2022-09-12T05:14:02;101355.59;;;10.57;100.00
50103;BME280;35993;52.604;10.078;2022-09-12T05:16:28;101352.88;;;10.57;100.00
50103;BME280;35993;52.604;10.078;2022-09-12T05:18:55;101347.66;;;10.55;100.00
50103;BME280;35993;52.604;10.078;2022-09-12T05:21:23;101351.84;;;10.58;100.00
50103;BME280;35993;52.604;10.078;2022-09-12T05:23:53;101358.91;;;10.52;100.00
50103;BME280;35993;52.604;10.078;2022-09-12T05:26:19;101354.13;;;10.54;100.00
50103;BME280;35993;52.604;10.078;2022-09-12T05:28:46;101360.38;;;10.55;100.00
50103;BME280;35993;52.604;10.078;2022-09-12T05:31:13;101357.09;;;10.66;100.00
50103;BME280;35993;52.604;10.078;2022-09-12T05:33:42;101369.22;;;10.70;100.00
50103;BME280;35993;52.604;10.078;2022-09-12T05:36:11;101365.69;;;10.70;100.00
50103;BME280;35993;52.604;10.078;2022-09-12T05:38:37;101366.97;;;10.80;100.00
50103;BME280;35993;52.604;10.078;2022-09-12T05:41:05;101363.28;;;10.88;100.00
50103;BME280;35993;52.604;10.078;2022-09-12T05:43:32;101368.50;;;10.90;100.00
50103;BME280;35993;52.604;10.078;2022-09-12T05:46:02;101371.78;;;10.78;100.00
50103;BME280;35993;52.604;10.078;2022-09-12T05:48:28;101375.78;;;10.82;100.00
50103;BME280;35993;52.604;10.078;2022-09-12T05:51:05;101377.03;;;10.87;100.00
50103;BME280;35993;52.604;10.078;2022-09-12T05:53:31;101377.69;;;10.89;100.00
50103;BME280;35993;52.604;10.078;2022-09-12T05:56:18;101373.06;;;10.89;100.00
50103;BME280;35993;52.604;10.078;2022-09-12T05:58:51;101388.56;;;10.95;100.00
50103;BME280;35993;52.604;10.078;2022-09-12T06:01:17;101384.81;;;10.96;100.00
50103;BME280;35993;52.604;10.078;2022-09-12T06:03:49;101373.75;;;11.05;100.00
50103;BME280;35993;52.604;10.078;2022-09-12T06:06:18;101376.06;;;11.01;100.00
50103;BME280;35993;52.604;10.078;2022-09-12T06:08:46;101382.13;;;11.03;100.00
50103;BME280;35993;52.604;10.078;2022-09-12T06:11:14;101382.75;;;11.05;100.00
50103;BME280;35993;52.604;10.078;2022-09-12T06:13:41;101382.16;;;11.17;100.00
50103;BME280;35993;52.604;10.078;2022-09-12T06:16:15;101385.31;;;11.20;100.00
50103;BME280;35993;52.604;10.078;2022-09-12T06:18:49;101390.75;;;11.20;100.00
50103;BME280;35993;52.604;10.078;2022-09-12T06:21:16;101391.22;;;11.30;100.00
50103;BME280;35993;52.604;10.078;2022-09-12T06:23:42;101389.97;;;11.40;100.00
50103;BME280;35993;52.604;10.078;2022-09-12T06:26:10;101382.47;;;11.48;100.00
50103;BME280;35993;52.604;10.078;2022-09-12T06:28:39;101387.47;;;11.52;100.00
50103;BME280;35993;52.604;10.078;2022-09-12T06:31:09;101382.25;;;11.50;100.00
50103;BME280;35993;52.604;10.078;2022-09-12T06:33:38;101379.94;;;11.54;100.00
50103;BME280;35993;52.604;10.078;2022-09-12T06:36:07;101380.38;;;11.57;100.00
50103;BME280;35993;52.604;10.078;2022-09-12T06:38:33;101374.94;;;11.57;100.00
50103;BME280;35993;52.604;10.078;2022-09-12T06:41:01;101377.84;;;11.56;100.00
50103;BME280;35993;52.604;10.078;2022-09-12T06:43:27;101369.50;;;11.57;100.00
50103;BME280;35993;52.604;10.078;2022-09-12T06:45:53;101374.31;;;11.62;100.00
50103;BME280;35993;52.604;10.078;2022-09-12T06:48:19;101375.75;;;11.64;100.00
50103;BME280;35993;52.604;10.078;2022-09-12T06:50:57;101371.78;;;11.74;100.00
50103;BME280;35993;52.604;10.078;2022-09-12T06:53:24;101375.16;;;11.76;100.00
50103;BME280;35993;52.604;10.078;2022-09-12T06:55:56;101376.22;;;11.88;100.00
50103;BME280;35993;52.604;10.078;2022-09-12T06:58:23;101376.41;;;11.93;100.00
50103;BME280;35993;52.604;10.078;2022-09-12T07:00:48;101379.16;;;12.00;100.00
50103;BME280;35993;52.604;10.078;2022-09-12T07:03:14;101367.84;;;12.03;100.00
50103;BME280;35993;52.604;10.078;2022-09-12T07:05:40;101384.16;;;12.17;100.00
50103;BME280;35993;52.604;10.078;2022-09-12T07:08:05;101372.03;;;12.19;100.00
50103;BME280;35993;52.604;10.078;2022-09-12T07:10:31;101375.78;;;12.25;100.00
50103;BME280;35993;52.604;10.078;2022-09-12T07:12:56;101372.00;;;12.39;100.00
50103;BME280;35993;52.604;10.078;2022-09-12T07:15:23;101375.34;;;12.48;100.00
50103;BME280;35993;52.604;10.078;2022-09-12T07:17:49;101382.44;;;12.49;100.00
50103;BME280;35993;52.604;10.078;2022-09-12T07:20:14;101378.25;;;12.53;100.00
50103;BME280;35993;52.604;10.078;2022-09-12T07:22:40;101377.84;;;12.50;100.00
50103;BME280;35993;52.604;10.078;2022-09-12T07:25:06;101375.72;;;12.52;100.00
50103;BME280;35993;52.604;10.078;2022-09-12T07:27:32;101379.03;;;12.60;100.00
50103;BME280;35993;52.604;10.078;2022-09-12T07:29:57;101378.16;;;12.80;100.00
50103;BME280;35993;52.604;10.078;2022-09-12T07:32:24;101374.53;;;12.93;100.00
50103;BME280;35993;52.604;10.078;2022-09-12T07:34:50;101373.84;;;13.04;100.00
50103;BME280;35993;52.604;10.078;2022-09-12T07:37:16;101369.38;;;13.17;100.00
50103;BME280;35993;52.604;10.078;2022-09-12T07:39:42;101370.53;;;13.34;100.00
50103;BME280;35993;52.604;10.078;2022-09-12T07:42:08;101372.94;;;13.56;100.00
50103;BME280;35993;52.604;10.078;2022-09-12T07:44:33;101373.06;;;13.68;100.00
50103;BME280;35993;52.604;10.078;2022-09-12T07:46:59;101371.22;;;13.62;100.00
50103;BME280;35993;52.604;10.078;2022-09-12T07:49:24;101370.78;;;13.65;100.00
50103;BME280;35993;52.604;10.078;2022-09-12T07:51:50;101373.19;;;13.80;100.00
50103;BME280;35993;52.604;10.078;2022-09-12T07:54:16;101379.97;;;13.96;100.00
50103;BME280;35993;52.604;10.078;2022-09-12T07:56:42;101380.97;;;14.01;100.00
50103;BME280;35993;52.604;10.078;2022-09-12T07:59:07;101380.06;;;13.89;100.00
50103;BME280;35993;52.604;10.078;2022-09-12T08:01:33;101379.66;;;13.85;100.00
50103;BME280;35993;52.604;10.078;2022-09-12T08:03:59;101382.81;;;14.07;100.00
50103;BME280;35993;52.604;10.078;2022-09-12T08:06:27;101369.59;;;14.30;100.00
50103;BME280;35993;52.604;10.078;2022-09-12T08:08:56;101370.25;;;14.43;100.00
50103;BME280;35993;52.604;10.078;2022-09-12T08:11:23;101373.53;;;14.52;100.00
50103;BME280;35993;52.604;10.078;2022-09-12T08:13:49;101381.06;;;14.57;100.00
50103;BME280;35993;52.604;10.078;2022-09-12T08:16:18;101376.22;;;14.78;100.00
50103;BME280;35993;52.604;10.078;2022-09-12T08:18:46;101374.94;;;14.80;100.00
50103;BME280;35993;52.604;10.078;2022-09-12T08:23:38;101377.31;;;15.07;100.00
50103;BME280;35993;52.604;10.078;2022-09-12T08:26:04;101373.34;;;15.21;100.00
50103;BME280;35993;52.604;10.078;2022-09-12T08:28:32;101374.22;;;15.34;100.00
50103;BME280;35993;52.604;10.078;2022-09-12T08:31:03;101375.56;;;15.43;100.00
50103;BME280;35993;52.604;10.078;2022-09-12T08:33:29;101374.97;;;15.41;100.00
50103;BME280;35993;52.604;10.078;2022-09-12T08:36:15;101380.44;;;15.41;100.00
50103;BME280;35993;52.604;10.078;2022-09-12T08:38:43;101370.59;;;15.52;100.00
50103;BME280;35993;52.604;10.078;2022-09-12T08:43:55;101381.69;;;15.69;100.00
50103;BME280;35993;52.604;10.078;2022-09-12T08:46:29;101376.25;;;15.81;100.00
50103;BME280;35993;52.604;10.078;2022-09-12T08:48:57;101380.56;;;15.88;100.00
50103;BME280;35993;52.604;10.078;2022-09-12T08:51:26;101383.19;;;15.95;100.00
50103;BME280;35993;52.604;10.078;2022-09-12T08:53:53;101371.41;;;16.07;100.00
50103;BME280;35993;52.604;10.078;2022-09-12T08:56:21;101374.03;;;16.13;100.00
50103;BME280;35993;52.604;10.078;2022-09-12T08:58:47;101368.22;;;16.21;100.00
50103;BME280;35993;52.604;10.078;2022-09-12T09:15:09;101367.13;;;16.87;100.00
50103;BME280;35993;52.604;10.078;2022-09-12T09:18:07;101363.22;;;16.95;100.00
50103;BME280;35993;52.604;10.078;2022-09-12T09:28:22;101347.16;;;17.32;100.00
50103;BME280;35993;52.604;10.078;2022-09-12T09:30:50;101347.22;;;17.49;100.00
50103;BME280;35993;52.604;10.078;2022-09-12T09:33:24;101348.72;;;17.57;100.00
50103;BME280;35993;52.604;10.078;2022-09-12T09:35:55;101345.97;;;17.57;100.00
50103;BME280;35993;52.604;10.078;2022-09-12T09:38:49;101335.63;;;17.64;100.00
50103;BME280;35993;52.604;10.078;2022-09-12T09:44:02;101330.81;;;17.72;100.00
50103;BME280;35993;52.604;10.078;2022-09-12T09:46:27;101331.56;;;17.84;100.00
50103;BME280;35993;52.604;10.078;2022-09-12T09:48:54;101329.22;;;17.93;100.00
50103;BME280;35993;52.604;10.078;2022-09-12T09:51:27;101326.09;;;18.01;100.00
50103;BME280;35993;52.604;10.078;2022-09-12T09:54:20;101314.31;;;18.23;100.00
50103;BME280;35993;52.604;10.078;2022-09-12T09:56:46;101318.59;;;18.36;100.00
50103;BME280;35993;52.604;10.078;2022-09-12T09:59:19;101315.50;;;18.32;100.00
50103;BME280;35993;52.604;10.078;2022-09-12T10:01:56;101319.94;;;18.33;100.00
50103;BME280;35993;52.604;10.078;2022-09-12T10:04:38;101313.91;;;18.36;100.00
50103;BME280;35993;52.604;10.078;2022-09-12T10:07:04;101311.88;;;18.48;98.10
50103;BME280;35993;52.604;10.078;2022-09-12T10:09:34;101310.66;;;18.61;98.03
50103;BME280;35993;52.604;10.078;2022-09-12T10:12:19;101302.78;;;18.70;96.16
50103;BME280;35993;52.604;10.078;2022-09-12T10:14:57;101301.13;;;18.69;94.67
50103;BME280;35993;52.604;10.078;2022-09-12T10:17:27;101296.66;;;18.63;92.94
50103;BME280;35993;52.604;10.078;2022-09-12T10:19:54;101302.78;;;18.70;92.50
50103;BME280;35993;52.604;10.078;2022-09-12T10:22:23;101296.59;;;18.80;91.99
50103;BME280;35993;52.604;10.078;2022-09-12T10:24:56;101298.00;;;18.82;91.99
50103;BME280;35993;52.604;10.078;2022-09-12T10:27:25;101294.06;;;18.78;91.59
50103;BME280;35993;52.604;10.078;2022-09-12T10:32:38;101302.03;;;18.97;89.21
50103;BME280;35993;52.604;10.078;2022-09-12T10:35:18;101292.16;;;19.01;90.22
50103;BME280;35993;52.604;10.078;2022-09-12T10:37:57;101289.22;;;19.13;89.00
50103;BME280;35993;52.604;10.078;2022-09-12T10:40:26;101292.88;;;19.19;87.97
50103;BME280;35993;52.604;10.078;2022-09-12T10:42:59;101283.06;;;19.28;88.47
50103;BME280;35993;52.604;10.078;2022-09-12T10:45:33;101291.09;;;19.35;87.97
50103;BME280;35993;52.604;10.078;2022-09-12T10:48:29;101286.50;;;19.45;86.14
50103;BME280;35993;52.604;10.078;2022-09-12T10:50:56;101281.31;;;19.49;85.44
50103;BME280;35993;52.604;10.078;2022-09-12T10:53:23;101273.56;;;19.46;85.11
50103;BME280;35993;52.604;10.078;2022-09-12T10:56:20;101284.66;;;19.56;84.51
50103;BME280;35993;52.604;10.078;2022-09-12T10:59:04;101284.19;;;19.64;83.15
50103;BME280;35993;52.604;10.078;2022-09-12T11:01:54;101270.09;;;19.61;83.15
50103;BME280;35993;52.604;10.078;2022-09-12T11:20:57;101262.41;;;20.06;77.43
50103;BME280;35993;52.604;10.078;2022-09-12T11:31:38;101265.00;;;20.28;76.95
50103;BME280;35993;52.604;10.078;2022-09-12T11:34:10;101252.59;;;20.25;73.56
50103;BME280;35993;52.604;10.078;2022-09-12T11:39:48;101244.06;;;20.27;72.91
50103;BME280;35993;52.604;10.078;2022-09-12T11:42:20;101248.22;;;20.35;74.87
50103;BME280;35993;52.604;10.078;2022-09-12T11:44:56;101244.91;;;20.38;73.52
50103;BME280;35993;52.604;10.078;2022-09-12T11:47:25;101253.22;;;20.43;73.29
50103;BME280;35993;52.604;10.078;2022-09-12T11:49:53;101248.53;;;20.49;72.12
50103;BME280;35993;52.604;10.078;2022-09-12T11:52:24;101245.22;;;20.46;72.37
50103;BME280;35993;52.604;10.078;2022-09-12T11:54:55;101243.84;;;20.49;72.12
50103;BME280;35993;52.604;10.078;2022-09-12T12:03:08;101251.06;;;20.55;70.34
50103;BME280;35993;52.604;10.078;2022-09-12T12:05:52;101241.13;;;20.54;69.81
50103;BME280;35993;52.604;10.078;2022-09-12T12:08:23;101243.31;;;20.62;69.64
50103;BME280;35993;52.604;10.078;2022-09-12T12:10:53;101236.44;;;20.60;70.11
50103;BME280;35993;52.604;10.078;2022-09-12T12:13:37;101241.69;;;20.56;69.44
50103;BME280;35993;52.604;10.078;2022-09-12T12:16:25;101243.59;;;20.56;70.63
50103;BME280;35993;52.604;10.078;2022-09-12T12:18:54;101229.28;;;20.59;70.65
50103;BME280;35993;52.604;10.078;2022-09-12T12:29:03;101230.66;;;20.61;68.84
50103;BME280;35993;52.604;10.078;2022-09-12T12:31:29;101231.19;;;20.58;67.42
50103;BME280;35993;52.604;10.078;2022-09-12T12:34:01;101229.00;;;20.66;67.60
50103;BME280;35993;52.604;10.078;2022-09-12T12:36:34;101228.22;;;20.75;67.06
50103;BME280;35993;52.604;10.078;2022-09-12T12:47:28;101221.31;;;20.78;67.97
50103;BME280;35993;52.604;10.078;2022-09-12T12:50:00;101209.47;;;20.88;67.29
50103;BME280;35993;52.604;10.078;2022-09-12T12:52:30;101213.91;;;21.04;67.41
50103;BME280;35993;52.604;10.078;2022-09-12T12:54:59;101219.16;;;21.16;66.02
50103;BME280;35993;52.604;10.078;2022-09-12T12:57:32;101209.75;;;21.07;65.11
50103;BME280;35993;52.604;10.078;2022-09-12T13:00:07;101212.53;;;21.07;64.86
50103;BME280;35993;52.604;10.078;2022-09-12T13:05:28;101200.91;;;20.79;65.52
50103;BME280;35993;52.604;10.078;2022-09-12T13:08:08;101200.38;;;20.72;65.99
50103;BME280;35993;52.604;10.078;2022-09-12T13:10:35;101193.97;;;20.66;65.64
50103;BME280;35993;52.604;10.078;2022-09-12T13:13:03;101190.72;;;20.79;66.92
50103;BME280;35993;52.604;10.078;2022-09-12T13:18:15;101187.38;;;20.72;67.23
50103;BME280;35993;52.604;10.078;2022-09-12T13:21:09;101185.22;;;20.85;66.24
50103;BME280;35993;52.604;10.078;2022-09-12T13:23:36;101185.50;;;20.93;65.95
50103;BME280;35993;52.604;10.078;2022-09-12T13:26:07;101181.88;;;20.93;65.78
50103;BME280;35993;52.604;10.078;2022-09-12T13:28:34;101175.81;;;21.06;65.50
50103;BME280;35993;52.604;10.078;2022-09-12T13:31:16;101175.53;;;21.23;64.86
50103;BME280;35993;52.604;10.078;2022-09-12T13:33:50;101167.53;;;21.27;65.16
50103;BME280;35993;52.604;10.078;2022-09-12T13:36:36;101171.63;;;21.50;64.18
50103;BME280;35993;52.604;10.078;2022-09-12T13:39:17;101169.97;;;21.44;62.26
50103;BME280;35993;52.604;10.078;2022-09-12T13:44:17;101159.53;;;21.31;62.56
50103;BME280;35993;52.604;10.078;2022-09-12T13:46:45;101158.38;;;21.37;62.18
50103;BME280;35993;52.604;10.078;2022-09-12T13:49:21;101157.56;;;21.36;62.02
50103;BME280;35993;52.604;10.078;2022-09-12T13:51:58;101153.69;;;21.48;61.33
50103;BME280;35993;52.604;10.078;2022-09-12T13:54:25;101142.34;;;21.44;61.56
50103;BME280;35993;52.604;10.078;2022-09-12T13:56:52;101130.22;;;21.45;61.28
50103;BME280;35993;52.604;10.078;2022-09-12T13:59:17;101137.38;;;21.56;60.46
50103;BME280;35993;52.604;10.078;2022-09-12T14:01:46;101134.63;;;21.56;60.56
50103;BME280;35993;52.604;10.078;2022-09-12T14:04:23;101128.53;;;21.49;60.08
50103;BME280;35993;52.604;10.078;2022-09-12T14:07:20;101128.03;;;21.21;59.87
50103;BME280;35993;52.604;10.078;2022-09-12T14:09:58;101123.66;;;21.00;61.02
50103;BME280;35993;52.604;10.078;2022-09-12T14:12:33;101118.41;;;20.98;61.54
50103;BME280;35993;52.604;10.078;2022-09-12T14:15:01;101106.00;;;21.01;62.27
50103;BME280;35993;52.604;10.078;2022-09-12T14:20:00;101106.56;;;20.98;61.78
50103;BME280;35993;52.604;10.078;2022-09-12T14:22:28;101103.81;;;20.92;62.88
50103;BME280;35993;52.604;10.078;2022-09-12T14:24:55;101104.88;;;21.02;62.77
50103;BME280;35993;52.604;10.078;2022-09-12T14:27:25;101105.44;;;21.14;62.09
50103;BME280;35993;52.604;10.078;2022-09-12T14:30:39;101104.03;;;21.17;61.17
50103;BME280;35993;52.604;10.078;2022-09-12T14:33:21;101097.13;;;21.19;60.36
50103;BME280;35993;52.604;10.078;2022-09-12T14:35:51;101104.28;;;21.31;61.08
50103;BME280;35993;52.604;10.078;2022-09-12T14:38:45;101094.38;;;21.24;61.99
50103;BME280;35993;52.604;10.078;2022-09-12T14:41:13;101099.06;;;21.19;60.57
50103;BME280;35993;52.604;10.078;2022-09-12T14:43:46;101096.03;;;21.20;61.65
50103;BME280;35993;52.604;10.078;2022-09-12T14:46:19;101086.91;;;21.15;62.15
50103;BME280;35993;52.604;10.078;2022-09-12T14:48:57;101085.00;;;21.15;61.34
50103;BME280;35993;52.604;10.078;2022-09-12T14:51:27;101082.47;;;21.24;60.60
50103;BME280;35993;52.604;10.078;2022-09-12T14:53:55;101081.59;;;21.44;59.44
50103;BME280;35993;52.604;10.078;2022-09-12T14:56:21;101085.44;;;21.58;59.26
50103;BME280;35993;52.604;10.078;2022-09-12T15:02:31;101085.47;;;21.43;59.69
50103;BME280;35993;52.604;10.078;2022-09-12T15:15:32;101078.13;;;21.88;57.57
50103;BME280;35993;52.604;10.078;2022-09-12T15:17:58;101077.00;;;21.95;57.32
50103;BME280;35993;52.604;10.078;2022-09-12T15:20:24;101072.63;;;21.83;56.77
50103;BME280;35993;52.604;10.078;2022-09-12T15:22:51;101065.75;;;21.75;57.53